sensor_id;sensor_type;location;lat;lon;timestamp;P1;durP1;ratioP1;P2;durP2;ratioP2
70832;SDS011;71099;59.528;17.886;2023-07-31T00:01:30;3.63;;;3.30;;
70832;SDS011;71099;59.528;17.886;2023-07-31T00:03:55;3.60;;;3.22;;
70832;SDS011;71099;59.528;17.886;2023-07-31T00:06:21;3.45;;;3.15;;
70832;SDS011;71099;59.528;17.886;2023-07-31T00:08:46;4.32;;;3.20;;
70832;SDS011;71099;59.528;17.886;2023-07-31T00:11:11;3.92;;;3.28;;
70832;SDS011;71099;59.528;17.886;2023-07-31T00:13:37;5.45;;;3.70;;
70832;SDS011;71099;59.528;17.886;2023-07-31T00:16:02;5.93;;;3.95;;
70832;SDS011;71099;59.528;17.886;2023-07-31T00:18:28;3.58;;;3.28;;
70832;SDS011;71099;59.528;17.886;2023-07-31T00:20:53;3.92;;;3.28;;
70832;SDS011;71099;59.528;17.886;2023-07-31T00:23:18;4.68;;;3.67;;
70832;SDS011;71099;59.528;17.886;2023-07-31T00:25:44;5.03;;;3.45;;
70832;SDS011;71099;59.528;17.886;2023-07-31T00:28:09;3.97;;;3.28;;
70832;SDS011;71099;59.528;17.886;2023-07-31T00:30:35;3.80;;;3.33;;
70832;SDS011;71099;59.528;17.886;2023-07-31T00:33:00;4.38;;;3.33;;
70832;SDS011;71099;59.528;17.886;2023-07-31T00:35:26;5.72;;;3.45;;
70832;SDS011;71099;59.528;17.886;2023-07-31T00:37:51;3.70;;;3.25;;
70832;SDS011;71099;59.528;17.886;2023-07-31T00:40:16;4.10;;;3.40;;
70832;SDS011;71099;59.528;17.886;2023-07-31T00:42:42;4.32;;;3.17;;
70832;SDS011;71099;59.528;17.886;2023-07-31T00:45:07;7.13;;;4.00;;
70832;SDS011;71099;59.528;17.886;2023-07-31T00:47:33;4.03;;;3.63;;
70832;SDS011;71099;59.528;17.886;2023-07-31T00:49:58;5.45;;;3.33;;
70832;SDS011;71099;59.528;17.886;2023-07-31T00:52:24;3.85;;;3.45;;
70832;SDS011;71099;59.528;17.886;2023-07-31T00:54:49;4.05;;;3.17;;
70832;SDS011;71099;59.528;17.886;2023-07-31T00:57:15;5.35;;;3.97;;
70832;SDS011;71099;59.528;17.886;2023-07-31T00:59:41;3.55;;;3.25;;
70832;SDS011;71099;59.528;17.886;2023-07-31T01:02:06;3.92;;;3.63;;
70832;SDS011;71099;59.528;17.886;2023-07-31T01:04:32;4.47;;;3.47;;
70832;SDS011;71099;59.528;17.886;2023-07-31T01:07:01;4.90;;;3.92;;
70832;SDS011;71099;59.528;17.886;2023-07-31T01:12:25;4.18;;;3.78;;
70832;SDS011;71099;59.528;17.886;2023-07-31T01:17:30;3.72;;;3.15;;
70832;SDS011;71099;59.528;17.886;2023-07-31T01:19:56;3.78;;;3.47;;
70832;SDS011;71099;59.528;17.886;2023-07-31T01:22:30;4.05;;;3.20;;
70832;SDS011;71099;59.528;17.886;2023-07-31T01:25:29;4.45;;;4.05;;
70832;SDS011;71099;59.528;17.886;2023-07-31T01:28:12;4.07;;;3.67;;
70832;SDS011;71099;59.528;17.886;2023-07-31T01:30:41;3.83;;;3.45;;
70832;SDS011;71099;59.528;17.886;2023-07-31T01:33:09;5.03;;;3.90;;
70832;SDS011;71099;59.528;17.886;2023-07-31T01:35:35;3.85;;;3.45;;
70832;SDS011;71099;59.528;17.886;2023-07-31T01:38:02;4.68;;;3.20;;
70832;SDS011;71099;59.528;17.886;2023-07-31T01:40:29;3.63;;;3.33;;
70832;SDS011;71099;59.528;17.886;2023-07-31T01:42:55;5.65;;;4.07;;
70832;SDS011;71099;59.528;17.886;2023-07-31T01:45:20;4.68;;;4.28;;
70832;SDS011;71099;59.528;17.886;2023-07-31T01:47:45;3.97;;;3.67;;
70832;SDS011;71099;59.528;17.886;2023-07-31T01:50:11;4.25;;;3.55;;
70832;SDS011;71099;59.528;17.886;2023-07-31T01:52:36;4.35;;;3.95;;
70832;SDS011;71099;59.528;17.886;2023-07-31T01:55:02;4.35;;;3.85;;
70832;SDS011;71099;59.528;17.886;2023-07-31T01:57:27;4.35;;;3.85;;
70832;SDS011;71099;59.528;17.886;2023-07-31T01:59:53;3.80;;;3.50;;
70832;SDS011;71099;59.528;17.886;2023-07-31T02:02:19;3.75;;;3.45;;
70832;SDS011;71099;59.528;17.886;2023-07-31T02:04:44;3.70;;;3.25;;
70832;SDS011;71099;59.528;17.886;2023-07-31T02:07:10;5.72;;;3.95;;
70832;SDS011;71099;59.528;17.886;2023-07-31T02:09:36;3.67;;;3.35;;
70832;SDS011;71099;59.528;17.886;2023-07-31T02:12:01;5.07;;;3.50;;
70832;SDS011;71099;59.528;17.886;2023-07-31T02:14:27;3.33;;;3.03;;
70832;SDS011;71099;59.528;17.886;2023-07-31T02:16:52;3.83;;;3.53;;
70832;SDS011;71099;59.528;17.886;2023-07-31T02:19:18;4.22;;;3.83;;
70832;SDS011;71099;59.528;17.886;2023-07-31T02:21:43;5.40;;;3.63;;
70832;SDS011;71099;59.528;17.886;2023-07-31T02:24:08;4.97;;;4.35;;
70832;SDS011;71099;59.528;17.886;2023-07-31T02:26:34;4.68;;;4.18;;
70832;SDS011;71099;59.528;17.886;2023-07-31T02:28:59;4.70;;;4.20;;
70832;SDS011;71099;59.528;17.886;2023-07-31T02:31:24;5.03;;;4.53;;
70832;SDS011;71099;59.528;17.886;2023-07-31T02:33:50;6.50;;;3.78;;
70832;SDS011;71099;59.528;17.886;2023-07-31T02:36:15;4.32;;;3.92;;
70832;SDS011;71099;59.528;17.886;2023-07-31T02:38:41;5.00;;;4.05;;
70832;SDS011;71099;59.528;17.886;2023-07-31T02:41:06;6.60;;;4.78;;
70832;SDS011;71099;59.528;17.886;2023-07-31T02:43:31;7.43;;;5.07;;
70832;SDS011;71099;59.528;17.886;2023-07-31T02:45:59;6.07;;;4.60;;
70832;SDS011;71099;59.528;17.886;2023-07-31T02:48:24;4.65;;;4.05;;
70832;SDS011;71099;59.528;17.886;2023-07-31T02:50:50;4.75;;;4.28;;
70832;SDS011;71099;59.528;17.886;2023-07-31T02:53:15;5.15;;;4.45;;
70832;SDS011;71099;59.528;17.886;2023-07-31T02:55:41;4.28;;;3.85;;
70832;SDS011;71099;59.528;17.886;2023-07-31T02:58:06;5.13;;;4.68;;
70832;SDS011;71099;59.528;17.886;2023-07-31T03:00:31;6.35;;;5.03;;
70832;SDS011;71099;59.528;17.886;2023-07-31T03:02:57;5.50;;;4.90;;
70832;SDS011;71099;59.528;17.886;2023-07-31T03:05:22;5.05;;;4.35;;
70832;SDS011;71099;59.528;17.886;2023-07-31T03:07:47;6.15;;;4.90;;
70832;SDS011;71099;59.528;17.886;2023-07-31T03:10:13;5.97;;;4.90;;
70832;SDS011;71099;59.528;17.886;2023-07-31T03:12:39;5.15;;;4.65;;
70832;SDS011;71099;59.528;17.886;2023-07-31T03:15:05;7.65;;;5.10;;
70832;SDS011;71099;59.528;17.886;2023-07-31T03:17:31;8.43;;;5.25;;
70832;SDS011;71099;59.528;17.886;2023-07-31T03:19:56;4.97;;;4.55;;
70832;SDS011;71099;59.528;17.886;2023-07-31T03:22:22;5.72;;;4.15;;
70832;SDS011;71099;59.528;17.886;2023-07-31T03:24:47;5.50;;;3.75;;
70832;SDS011;71099;59.528;17.886;2023-07-31T03:27:12;4.18;;;3.42;;
70832;SDS011;71099;59.528;17.886;2023-07-31T03:29:38;4.93;;;4.05;;
70832;SDS011;71099;59.528;17.886;2023-07-31T03:32:03;6.78;;;4.28;;
70832;SDS011;71099;59.528;17.886;2023-07-31T03:34:29;4.47;;;4.07;;
70832;SDS011;71099;59.528;17.886;2023-07-31T03:36:56;4.97;;;4.57;;
70832;SDS011;71099;59.528;17.886;2023-07-31T03:39:22;4.18;;;3.88;;
70832;SDS011;71099;59.528;17.886;2023-07-31T03:41:48;4.45;;;4.00;;
70832;SDS011;71099;59.528;17.886;2023-07-31T03:44:13;4.40;;;3.95;;
70832;SDS011;71099;59.528;17.886;2023-07-31T03:46:38;4.85;;;4.35;;
70832;SDS011;71099;59.528;17.886;2023-07-31T03:49:04;5.60;;;5.10;;
70832;SDS011;71099;59.528;17.886;2023-07-31T03:51:29;5.68;;;5.18;;
70832;SDS011;71099;59.528;17.886;2023-07-31T03:53:54;6.07;;;5.57;;
70832;SDS011;71099;59.528;17.886;2023-07-31T03:56:20;6.72;;;6.03;;
70832;SDS011;71099;59.528;17.886;2023-07-31T03:58:46;6.00;;;5.40;;
70832;SDS011;71099;59.528;17.886;2023-07-31T04:01:11;6.03;;;5.50;;
70832;SDS011;71099;59.528;17.886;2023-07-31T04:03:36;6.05;;;5.35;;
70832;SDS011;71099;59.528;17.886;2023-07-31T04:06:02;6.57;;;5.70;;
70832;SDS011;71099;59.528;17.886;2023-07-31T04:08:27;6.07;;;4.78;;
70832;SDS011;71099;59.528;17.886;2023-07-31T04:10:53;6.05;;;5.45;;
70832;SDS011;71099;59.528;17.886;2023-07-31T04:13:18;6.30;;;5.70;;
70832;SDS011;71099;59.528;17.886;2023-07-31T04:15:48;5.93;;;5.28;;
70832;SDS011;71099;59.528;17.886;2023-07-31T04:18:14;5.88;;;5.32;;
70832;SDS011;71099;59.528;17.886;2023-07-31T04:20:40;6.30;;;5.65;;
70832;SDS011;71099;59.528;17.886;2023-07-31T04:23:05;6.85;;;5.80;;
70832;SDS011;71099;59.528;17.886;2023-07-31T04:25:31;5.55;;;5.05;;
70832;SDS011;71099;59.528;17.886;2023-07-31T04:27:56;5.72;;;5.22;;
70832;SDS011;71099;59.528;17.886;2023-07-31T04:30:22;6.43;;;5.82;;
70832;SDS011;71099;59.528;17.886;2023-07-31T04:32:47;8.75;;;6.85;;
70832;SDS011;71099;59.528;17.886;2023-07-31T04:35:12;7.60;;;6.53;;
70832;SDS011;71099;59.528;17.886;2023-07-31T04:37:38;7.70;;;6.85;;
70832;SDS011;71099;59.528;17.886;2023-07-31T04:40:03;6.35;;;5.75;;
70832;SDS011;71099;59.528;17.886;2023-07-31T04:42:29;6.70;;;5.22;;
70832;SDS011;71099;59.528;17.886;2023-07-31T04:44:54;6.70;;;5.07;;
70832;SDS011;71099;59.528;17.886;2023-07-31T04:47:20;7.30;;;6.03;;
70832;SDS011;71099;59.528;17.886;2023-07-31T04:49:45;5.85;;;5.28;;
70832;SDS011;71099;59.528;17.886;2023-07-31T04:52:11;5.78;;;5.25;;
70832;SDS011;71099;59.528;17.886;2023-07-31T04:54:36;6.78;;;6.13;;
70832;SDS011;71099;59.528;17.886;2023-07-31T04:57:02;8.68;;;7.03;;
70832;SDS011;71099;59.528;17.886;2023-07-31T04:59:27;7.07;;;5.75;;
70832;SDS011;71099;59.528;17.886;2023-07-31T05:01:53;6.40;;;5.80;;
70832;SDS011;71099;59.528;17.886;2023-07-31T05:04:18;6.35;;;5.75;;
70832;SDS011;71099;59.528;17.886;2023-07-31T05:06:43;6.82;;;5.80;;
70832;SDS011;71099;59.528;17.886;2023-07-31T05:09:09;6.50;;;4.78;;
70832;SDS011;71099;59.528;17.886;2023-07-31T05:11:35;5.40;;;4.85;;
70832;SDS011;71099;59.528;17.886;2023-07-31T05:14:00;5.25;;;4.47;;
70832;SDS011;71099;59.528;17.886;2023-07-31T05:16:26;6.82;;;6.05;;
70832;SDS011;71099;59.528;17.886;2023-07-31T05:18:51;7.97;;;6.10;;
70832;SDS011;71099;59.528;17.886;2023-07-31T05:21:17;6.55;;;5.63;;
70832;SDS011;71099;59.528;17.886;2023-07-31T05:23:42;9.55;;;6.63;;
70832;SDS011;71099;59.528;17.886;2023-07-31T05:26:07;7.53;;;6.45;;
70832;SDS011;71099;59.528;17.886;2023-07-31T05:28:35;9.18;;;7.57;;
70832;SDS011;71099;59.528;17.886;2023-07-31T05:31:02;8.25;;;7.45;;
70832;SDS011;71099;59.528;17.886;2023-07-31T05:33:28;6.00;;;5.32;;
70832;SDS011;71099;59.528;17.886;2023-07-31T05:35:53;6.47;;;5.88;;
70832;SDS011;71099;59.528;17.886;2023-07-31T05:38:19;6.35;;;5.75;;
70832;SDS011;71099;59.528;17.886;2023-07-31T05:40:44;10.48;;;6.18;;
70832;SDS011;71099;59.528;17.886;2023-07-31T05:43:10;7.10;;;6.40;;
70832;SDS011;71099;59.528;17.886;2023-07-31T05:45:35;7.03;;;5.82;;
70832;SDS011;71099;59.528;17.886;2023-07-31T05:48:01;6.78;;;6.07;;
70832;SDS011;71099;59.528;17.886;2023-07-31T05:50:27;11.00;;;6.97;;
70832;SDS011;71099;59.528;17.886;2023-07-31T05:52:53;10.10;;;7.10;;
70832;SDS011;71099;59.528;17.886;2023-07-31T05:55:18;7.05;;;6.38;;
70832;SDS011;71099;59.528;17.886;2023-07-31T05:57:44;7.63;;;6.40;;
70832;SDS011;71099;59.528;17.886;2023-07-31T06:00:11;7.35;;;6.53;;
70832;SDS011;71099;59.528;17.886;2023-07-31T06:02:37;8.23;;;5.93;;
70832;SDS011;71099;59.528;17.886;2023-07-31T06:05:03;7.65;;;6.88;;
70832;SDS011;71099;59.528;17.886;2023-07-31T06:07:30;8.25;;;6.75;;
70832;SDS011;71099;59.528;17.886;2023-07-31T06:09:56;6.70;;;5.70;;
70832;SDS011;71099;59.528;17.886;2023-07-31T06:12:27;7.05;;;6.45;;
70832;SDS011;71099;59.528;17.886;2023-07-31T06:14:52;6.47;;;5.80;;
70832;SDS011;71099;59.528;17.886;2023-07-31T06:17:17;6.38;;;5.75;;
70832;SDS011;71099;59.528;17.886;2023-07-31T06:19:43;7.00;;;6.03;;
70832;SDS011;71099;59.528;17.886;2023-07-31T06:22:09;6.15;;;5.22;;
70832;SDS011;71099;59.528;17.886;2023-07-31T06:24:34;8.82;;;6.07;;
70832;SDS011;71099;59.528;17.886;2023-07-31T06:26:59;5.53;;;4.82;;
70832;SDS011;71099;59.528;17.886;2023-07-31T06:29:25;6.80;;;4.63;;
70832;SDS011;71099;59.528;17.886;2023-07-31T06:31:50;4.90;;;4.50;;
70832;SDS011;71099;59.528;17.886;2023-07-31T06:34:16;7.38;;;5.05;;
70832;SDS011;71099;59.528;17.886;2023-07-31T06:36:42;6.13;;;4.72;;
70832;SDS011;71099;59.528;17.886;2023-07-31T06:39:07;6.05;;;4.93;;
70832;SDS011;71099;59.528;17.886;2023-07-31T06:41:34;7.25;;;4.22;;
70832;SDS011;71099;59.528;17.886;2023-07-31T06:43:59;6.38;;;4.55;;
70832;SDS011;71099;59.528;17.886;2023-07-31T06:46:24;9.13;;;4.85;;
70832;SDS011;71099;59.528;17.886;2023-07-31T06:48:50;5.88;;;4.93;;
70832;SDS011;71099;59.528;17.886;2023-07-31T06:51:15;6.20;;;4.82;;
70832;SDS011;71099;59.528;17.886;2023-07-31T06:53:41;8.25;;;4.78;;
70832;SDS011;71099;59.528;17.886;2023-07-31T06:56:06;5.55;;;4.35;;
70832;SDS011;71099;59.528;17.886;2023-07-31T06:58:32;4.75;;;3.75;;
70832;SDS011;71099;59.528;17.886;2023-07-31T07:00:57;6.82;;;4.28;;
70832;SDS011;71099;59.528;17.886;2023-07-31T07:03:23;8.63;;;4.13;;
70832;SDS011;71099;59.528;17.886;2023-07-31T07:05:48;6.25;;;4.07;;
70832;SDS011;71099;59.528;17.886;2023-07-31T07:08:13;5.65;;;3.83;;
70832;SDS011;71099;59.528;17.886;2023-07-31T07:10:39;7.35;;;4.15;;
70832;SDS011;71099;59.528;17.886;2023-07-31T07:13:04;4.38;;;3.53;;
70832;SDS011;71099;59.528;17.886;2023-07-31T07:15:30;8.68;;;4.30;;
70832;SDS011;71099;59.528;17.886;2023-07-31T07:17:55;6.85;;;3.60;;
70832;SDS011;71099;59.528;17.886;2023-07-31T07:20:21;4.60;;;2.72;;
70832;SDS011;71099;59.528;17.886;2023-07-31T07:22:46;6.13;;;2.63;;
70832;SDS011;71099;59.528;17.886;2023-07-31T07:25:12;8.65;;;3.58;;
70832;SDS011;71099;59.528;17.886;2023-07-31T07:27:37;3.83;;;2.83;;
70832;SDS011;71099;59.528;17.886;2023-07-31T07:30:02;3.38;;;2.63;;
70832;SDS011;71099;59.528;17.886;2023-07-31T07:32:28;6.28;;;2.60;;
70832;SDS011;71099;59.528;17.886;2023-07-31T07:34:54;5.32;;;2.65;;
70832;SDS011;71099;59.528;17.886;2023-07-31T07:37:20;7.88;;;3.00;;
70832;SDS011;71099;59.528;17.886;2023-07-31T07:39:45;5.78;;;2.67;;
70832;SDS011;71099;59.528;17.886;2023-07-31T07:42:11;5.68;;;2.95;;
70832;SDS011;71099;59.528;17.886;2023-07-31T07:44:36;9.30;;;3.13;;
70832;SDS011;71099;59.528;17.886;2023-07-31T07:47:02;10.77;;;3.20;;
70832;SDS011;71099;59.528;17.886;2023-07-31T07:49:28;7.05;;;2.83;;
70832;SDS011;71099;59.528;17.886;2023-07-31T07:51:53;6.97;;;2.97;;
70832;SDS011;71099;59.528;17.886;2023-07-31T07:54:19;8.35;;;3.05;;
70832;SDS011;71099;59.528;17.886;2023-07-31T07:56:47;7.07;;;2.80;;
70832;SDS011;71099;59.528;17.886;2023-07-31T07:59:12;7.80;;;2.58;;
70832;SDS011;71099;59.528;17.886;2023-07-31T08:01:38;8.88;;;2.60;;
70832;SDS011;71099;59.528;17.886;2023-07-31T08:04:03;8.77;;;2.95;;
70832;SDS011;71099;59.528;17.886;2023-07-31T08:06:29;9.38;;;3.08;;
70832;SDS011;71099;59.528;17.886;2023-07-31T08:08:55;4.57;;;3.08;;
70832;SDS011;71099;59.528;17.886;2023-07-31T08:11:20;7.70;;;2.38;;
70832;SDS011;71099;59.528;17.886;2023-07-31T08:13:48;8.20;;;3.08;;
70832;SDS011;71099;59.528;17.886;2023-07-31T08:16:14;6.47;;;2.47;;
70832;SDS011;71099;59.528;17.886;2023-07-31T08:18:39;8.85;;;2.97;;
70832;SDS011;71099;59.528;17.886;2023-07-31T08:21:05;8.32;;;2.72;;
70832;SDS011;71099;59.528;17.886;2023-07-31T08:23:31;7.80;;;3.25;;
70832;SDS011;71099;59.528;17.886;2023-07-31T08:25:56;5.68;;;3.22;;
70832;SDS011;71099;59.528;17.886;2023-07-31T08:28:22;5.95;;;2.75;;
70832;SDS011;71099;59.528;17.886;2023-07-31T08:30:47;5.50;;;3.35;;
70832;SDS011;71099;59.528;17.886;2023-07-31T08:33:12;13.13;;;4.20;;
70832;SDS011;71099;59.528;17.886;2023-07-31T08:35:38;6.60;;;3.90;;
70832;SDS011;71099;59.528;17.886;2023-07-31T08:38:03;5.97;;;3.00;;
70832;SDS011;71099;59.528;17.886;2023-07-31T08:40:29;8.38;;;3.58;;
70832;SDS011;71099;59.528;17.886;2023-07-31T08:42:55;6.10;;;3.70;;
70832;SDS011;71099;59.528;17.886;2023-07-31T08:45:27;5.60;;;3.95;;
70832;SDS011;71099;59.528;17.886;2023-07-31T08:47:54;8.00;;;3.67;;
70832;SDS011;71099;59.528;17.886;2023-07-31T08:50:21;7.50;;;3.75;;
70832;SDS011;71099;59.528;17.886;2023-07-31T08:52:47;9.43;;;3.30;;
70832;SDS011;71099;59.528;17.886;2023-07-31T08:55:13;6.43;;;3.25;;
70832;SDS011;71099;59.528;17.886;2023-07-31T08:57:39;7.90;;;3.78;;
70832;SDS011;71099;59.528;17.886;2023-07-31T09:00:07;6.22;;;3.30;;
70832;SDS011;71099;59.528;17.886;2023-07-31T09:02:45;5.75;;;3.35;;
70832;SDS011;71099;59.528;17.886;2023-07-31T09:05:13;16.55;;;3.42;;
70832;SDS011;71099;59.528;17.886;2023-07-31T09:07:40;7.20;;;3.05;;
70832;SDS011;71099;59.528;17.886;2023-07-31T09:10:11;4.70;;;3.60;;
70832;SDS011;71099;59.528;17.886;2023-07-31T09:12:36;7.63;;;3.42;;
70832;SDS011;71099;59.528;17.886;2023-07-31T09:15:03;10.02;;;4.70;;
70832;SDS011;71099;59.528;17.886;2023-07-31T09:17:33;5.50;;;3.60;;
70832;SDS011;71099;59.528;17.886;2023-07-31T09:20:15;12.45;;;3.72;;
70832;SDS011;71099;59.528;17.886;2023-07-31T09:22:43;6.03;;;3.30;;
70832;SDS011;71099;59.528;17.886;2023-07-31T09:30:20;6.65;;;3.20;;
70832;SDS011;71099;59.528;17.886;2023-07-31T09:32:46;6.05;;;2.47;;
70832;SDS011;71099;59.528;17.886;2023-07-31T09:35:28;9.50;;;3.33;;
70832;SDS011;71099;59.528;17.886;2023-07-31T09:37:57;7.03;;;3.38;;
70832;SDS011;71099;59.528;17.886;2023-07-31T09:40:31;7.60;;;3.40;;
70832;SDS011;71099;59.528;17.886;2023-07-31T09:42:58;9.90;;;3.60;;
70832;SDS011;71099;59.528;17.886;2023-07-31T09:45:29;6.57;;;3.28;;
70832;SDS011;71099;59.528;17.886;2023-07-31T09:47:55;7.60;;;3.13;;
70832;SDS011;71099;59.528;17.886;2023-07-31T09:50:22;5.93;;;2.90;;
70832;SDS011;71099;59.528;17.886;2023-07-31T09:52:49;11.35;;;4.72;;
70832;SDS011;71099;59.528;17.886;2023-07-31T09:55:15;5.70;;;2.75;;
70832;SDS011;71099;59.528;17.886;2023-07-31T09:57:41;4.88;;;2.67;;
70832;SDS011;71099;59.528;17.886;2023-07-31T10:00:09;5.88;;;2.88;;
70832;SDS011;71099;59.528;17.886;2023-07-31T10:02:36;4.47;;;2.50;;
70832;SDS011;71099;59.528;17.886;2023-07-31T10:05:03;7.63;;;2.40;;
70832;SDS011;71099;59.528;17.886;2023-07-31T10:07:30;8.25;;;3.13;;
70832;SDS011;71099;59.528;17.886;2023-07-31T10:10:00;7.30;;;2.50;;
70832;SDS011;71099;59.528;17.886;2023-07-31T10:12:26;5.10;;;2.58;;
70832;SDS011;71099;59.528;17.886;2023-07-31T10:14:55;6.80;;;2.53;;
70832;SDS011;71099;59.528;17.886;2023-07-31T10:17:22;7.80;;;2.88;;
70832;SDS011;71099;59.528;17.886;2023-07-31T10:19:49;6.60;;;1.95;;
70832;SDS011;71099;59.528;17.886;2023-07-31T10:22:15;6.97;;;2.30;;
70832;SDS011;71099;59.528;17.886;2023-07-31T10:24:43;5.82;;;2.10;;
70832;SDS011;71099;59.528;17.886;2023-07-31T10:27:10;6.18;;;2.03;;
70832;SDS011;71099;59.528;17.886;2023-07-31T10:29:37;4.03;;;2.40;;
70832;SDS011;71099;59.528;17.886;2023-07-31T10:32:04;5.18;;;2.00;;
70832;SDS011;71099;59.528;17.886;2023-07-31T10:34:33;6.72;;;2.00;;
70832;SDS011;71099;59.528;17.886;2023-07-31T10:42:27;4.38;;;1.40;;
70832;SDS011;71099;59.528;17.886;2023-07-31T10:45:12;5.20;;;1.60;;
70832;SDS011;71099;59.528;17.886;2023-07-31T10:47:39;7.13;;;2.35;;
70832;SDS011;71099;59.528;17.886;2023-07-31T10:50:12;8.88;;;3.15;;
70832;SDS011;71099;59.528;17.886;2023-07-31T10:52:46;8.35;;;2.17;;
70832;SDS011;71099;59.528;17.886;2023-07-31T10:57:45;3.25;;;1.85;;
70832;SDS011;71099;59.528;17.886;2023-07-31T11:00:17;4.47;;;2.35;;
70832;SDS011;71099;59.528;17.886;2023-07-31T11:03:40;3.10;;;1.95;;
70832;SDS011;71099;59.528;17.886;2023-07-31T11:05:50;7.68;;;2.53;;
70832;SDS011;71099;59.528;17.886;2023-07-31T11:13:48;5.03;;;2.13;;
70832;SDS011;71099;59.528;17.886;2023-07-31T11:16:18;4.70;;;1.70;;
70832;SDS011;71099;59.528;17.886;2023-07-31T11:18:45;5.10;;;2.55;;
70832;SDS011;71099;59.528;17.886;2023-07-31T11:21:16;7.28;;;2.22;;
70832;SDS011;71099;59.528;17.886;2023-07-31T11:23:46;4.22;;;2.08;;
70832;SDS011;71099;59.528;17.886;2023-07-31T11:26:12;10.02;;;2.70;;
70832;SDS011;71099;59.528;17.886;2023-07-31T11:28:38;5.18;;;3.05;;
70832;SDS011;71099;59.528;17.886;2023-07-31T11:31:04;3.20;;;1.88;;
70832;SDS011;71099;59.528;17.886;2023-07-31T11:33:30;5.45;;;1.75;;
70832;SDS011;71099;59.528;17.886;2023-07-31T11:35:55;4.68;;;2.67;;
70832;SDS011;71099;59.528;17.886;2023-07-31T11:38:22;3.67;;;1.85;;
70832;SDS011;71099;59.528;17.886;2023-07-31T11:40:55;8.23;;;2.70;;
70832;SDS011;71099;59.528;17.886;2023-07-31T11:43:28;4.10;;;2.35;;
70832;SDS011;71099;59.528;17.886;2023-07-31T11:45:55;3.80;;;2.10;;
70832;SDS011;71099;59.528;17.886;2023-07-31T11:48:27;2.83;;;1.92;;
70832;SDS011;71099;59.528;17.886;2023-07-31T11:51:04;5.38;;;2.20;;
70832;SDS011;71099;59.528;17.886;2023-07-31T11:53:31;6.15;;;2.42;;
70832;SDS011;71099;59.528;17.886;2023-07-31T11:56:01;4.50;;;1.85;;
70832;SDS011;71099;59.528;17.886;2023-07-31T11:58:30;6.15;;;2.33;;
70832;SDS011;71099;59.528;17.886;2023-07-31T12:00:56;6.13;;;2.50;;
70832;SDS011;71099;59.528;17.886;2023-07-31T12:03:23;5.53;;;2.13;;
70832;SDS011;71099;59.528;17.886;2023-07-31T12:05:49;5.20;;;2.25;;
70832;SDS011;71099;59.528;17.886;2023-07-31T12:08:14;3.42;;;1.67;;
70832;SDS011;71099;59.528;17.886;2023-07-31T12:10:41;3.70;;;2.15;;
70832;SDS011;71099;59.528;17.886;2023-07-31T12:13:10;7.07;;;1.92;;
70832;SDS011;71099;59.528;17.886;2023-07-31T12:15:41;4.38;;;2.08;;
70832;SDS011;71099;59.528;17.886;2023-07-31T12:18:08;2.85;;;1.48;;
70832;SDS011;71099;59.528;17.886;2023-07-31T12:20:39;4.75;;;2.08;;
70832;SDS011;71099;59.528;17.886;2023-07-31T12:23:12;5.45;;;2.30;;
70832;SDS011;71099;59.528;17.886;2023-07-31T12:26:12;6.03;;;1.98;;
70832;SDS011;71099;59.528;17.886;2023-07-31T12:31:08;4.80;;;2.08;;
70832;SDS011;71099;59.528;17.886;2023-07-31T12:33:36;3.42;;;2.05;;
70832;SDS011;71099;59.528;17.886;2023-07-31T12:36:04;6.57;;;2.47;;
70832;SDS011;71099;59.528;17.886;2023-07-31T12:38:33;6.35;;;2.78;;
70832;SDS011;71099;59.528;17.886;2023-07-31T12:40:58;3.85;;;2.17;;
70832;SDS011;71099;59.528;17.886;2023-07-31T12:43:24;4.60;;;1.92;;
70832;SDS011;71099;59.528;17.886;2023-07-31T12:45:49;2.20;;;1.67;;
70832;SDS011;71099;59.528;17.886;2023-07-31T12:48:15;3.40;;;1.67;;
70832;SDS011;71099;59.528;17.886;2023-07-31T12:50:40;2.90;;;1.73;;
70832;SDS011;71099;59.528;17.886;2023-07-31T12:53:05;2.63;;;1.58;;
70832;SDS011;71099;59.528;17.886;2023-07-31T12:55:32;2.92;;;1.95;;
70832;SDS011;71099;59.528;17.886;2023-07-31T12:58:02;3.78;;;1.85;;
70832;SDS011;71099;59.528;17.886;2023-07-31T13:00:28;5.03;;;1.75;;
70832;SDS011;71099;59.528;17.886;2023-07-31T13:02:53;2.10;;;1.25;;
70832;SDS011;71099;59.528;17.886;2023-07-31T13:05:19;5.70;;;1.92;;
70832;SDS011;71099;59.528;17.886;2023-07-31T13:07:45;4.93;;;2.55;;
70832;SDS011;71099;59.528;17.886;2023-07-31T13:10:11;8.30;;;1.50;;
70832;SDS011;71099;59.528;17.886;2023-07-31T13:12:37;3.40;;;1.67;;
70832;SDS011;71099;59.528;17.886;2023-07-31T13:15:03;4.75;;;1.95;;
70832;SDS011;71099;59.528;17.886;2023-07-31T13:17:32;4.60;;;1.88;;
70832;SDS011;71099;59.528;17.886;2023-07-31T13:19:57;3.72;;;1.98;;
70832;SDS011;71099;59.528;17.886;2023-07-31T13:22:23;3.53;;;2.13;;
70832;SDS011;71099;59.528;17.886;2023-07-31T13:24:48;5.43;;;2.55;;
70832;SDS011;71099;59.528;17.886;2023-07-31T13:27:14;10.57;;;2.83;;
70832;SDS011;71099;59.528;17.886;2023-07-31T13:29:43;6.50;;;2.45;;
70832;SDS011;71099;59.528;17.886;2023-07-31T13:32:09;4.93;;;2.17;;
70832;SDS011;71099;59.528;17.886;2023-07-31T13:34:35;3.40;;;2.00;;
70832;SDS011;71099;59.528;17.886;2023-07-31T13:37:00;4.80;;;2.10;;
70832;SDS011;71099;59.528;17.886;2023-07-31T13:39:25;5.68;;;2.20;;
70832;SDS011;71099;59.528;17.886;2023-07-31T13:41:51;4.75;;;2.20;;
70832;SDS011;71099;59.528;17.886;2023-07-31T13:44:16;6.57;;;1.98;;
70832;SDS011;71099;59.528;17.886;2023-07-31T13:46:41;6.93;;;1.63;;
70832;SDS011;71099;59.528;17.886;2023-07-31T13:49:07;4.28;;;2.20;;
70832;SDS011;71099;59.528;17.886;2023-07-31T13:51:32;2.67;;;2.05;;
70832;SDS011;71099;59.528;17.886;2023-07-31T13:53:58;5.20;;;1.60;;
70832;SDS011;71099;59.528;17.886;2023-07-31T13:56:23;2.35;;;1.60;;
70832;SDS011;71099;59.528;17.886;2023-07-31T13:58:49;2.78;;;1.90;;
70832;SDS011;71099;59.528;17.886;2023-07-31T14:01:14;3.58;;;2.15;;
70832;SDS011;71099;59.528;17.886;2023-07-31T14:03:39;3.78;;;2.10;;
70832;SDS011;71099;59.528;17.886;2023-07-31T14:06:05;5.60;;;2.03;;
70832;SDS011;71099;59.528;17.886;2023-07-31T14:08:30;3.67;;;2.28;;
70832;SDS011;71099;59.528;17.886;2023-07-31T14:10:56;4.43;;;2.28;;
70832;SDS011;71099;59.528;17.886;2023-07-31T14:13:21;2.97;;;1.70;;
70832;SDS011;71099;59.528;17.886;2023-07-31T14:15:47;7.43;;;2.30;;
70832;SDS011;71099;59.528;17.886;2023-07-31T14:18:13;3.22;;;2.92;;
70832;SDS011;71099;59.528;17.886;2023-07-31T14:20:38;5.35;;;2.58;;
70832;SDS011;71099;59.528;17.886;2023-07-31T14:23:04;3.35;;;2.22;;
70832;SDS011;71099;59.528;17.886;2023-07-31T14:25:29;5.28;;;2.45;;
70832;SDS011;71099;59.528;17.886;2023-07-31T14:27:55;3.28;;;2.28;;
70832;SDS011;71099;59.528;17.886;2023-07-31T14:30:20;3.90;;;1.95;;
70832;SDS011;71099;59.528;17.886;2023-07-31T14:32:46;3.88;;;2.53;;
70832;SDS011;71099;59.528;17.886;2023-07-31T14:35:12;4.05;;;2.33;;
70832;SDS011;71099;59.528;17.886;2023-07-31T14:37:38;6.18;;;2.00;;
70832;SDS011;71099;59.528;17.886;2023-07-31T14:40:05;5.93;;;2.70;;
70832;SDS011;71099;59.528;17.886;2023-07-31T14:42:32;5.35;;;2.22;;
70832;SDS011;71099;59.528;17.886;2023-07-31T14:44:57;7.00;;;3.08;;
70832;SDS011;71099;59.528;17.886;2023-07-31T14:47:23;2.95;;;2.33;;
70832;SDS011;71099;59.528;17.886;2023-07-31T14:49:48;4.00;;;1.70;;
70832;SDS011;71099;59.528;17.886;2023-07-31T14:52:14;3.20;;;1.83;;
70832;SDS011;71099;59.528;17.886;2023-07-31T14:54:39;4.93;;;2.00;;
70832;SDS011;71099;59.528;17.886;2023-07-31T14:57:05;2.08;;;1.88;;